sensor_id;sensor_type;location;lat;lon;timestamp;P1;durP1;ratioP1;P2;durP2;ratioP2
77246;SDS011;66279;42.820;23.374;2023-06-14T01:10:53;19.42;;;7.43;;
77246;SDS011;66279;42.820;23.374;2023-06-14T01:13:52;28.25;;;10.50;;
77246;SDS011;66279;42.820;23.374;2023-06-14T01:16:18;36.72;;;10.88;;
77246;SDS011;66279;42.820;23.374;2023-06-14T01:18:45;23.50;;;9.13;;
77246;SDS011;66279;42.820;23.374;2023-06-14T01:21:21;24.73;;;9.27;;
77246;SDS011;66279;42.820;23.374;2023-06-14T01:23:51;26.52;;;7.70;;
77246;SDS011;66279;42.820;23.374;2023-06-14T01:26:21;22.73;;;9.02;;
77246;SDS011;66279;42.820;23.374;2023-06-14T01:28:47;21.90;;;6.93;;
77246;SDS011;66279;42.820;23.374;2023-06-14T01:31:19;17.38;;;6.68;;
77246;SDS011;66279;42.820;23.374;2023-06-14T01:33:49;25.77;;;6.95;;
77246;SDS011;66279;42.820;23.374;2023-06-14T01:36:16;11.95;;;4.70;;
77246;SDS011;66279;42.820;23.374;2023-06-14T01:38:45;11.63;;;5.40;;
77246;SDS011;66279;42.820;23.374;2023-06-14T01:41:13;19.52;;;5.53;;
77246;SDS011;66279;42.820;23.374;2023-06-14T03:17:21;13.77;;;6.78;;
77246;SDS011;66279;42.820;23.374;2023-06-14T05:42:37;54.45;;;20.25;;
77246;SDS011;66279;42.820;23.374;2023-06-14T05:45:02;54.97;;;20.08;;
77246;SDS011;66279;42.820;23.374;2023-06-14T05:47:28;57.20;;;22.48;;
77246;SDS011;66279;42.820;23.374;2023-06-14T05:49:54;48.40;;;17.85;;
77246;SDS011;66279;42.820;23.374;2023-06-14T05:52:20;59.90;;;21.50;;
77246;SDS011;66279;42.820;23.374;2023-06-14T05:54:45;58.03;;;22.38;;
77246;SDS011;66279;42.820;23.374;2023-06-14T05:57:11;51.35;;;18.90;;
77246;SDS011;66279;42.820;23.374;2023-06-14T05:59:37;55.42;;;21.13;;
77246;SDS011;66279;42.820;23.374;2023-06-14T06:02:02;54.78;;;22.00;;
77246;SDS011;66279;42.820;23.374;2023-06-14T06:04:28;65.85;;;24.90;;
77246;SDS011;66279;42.820;23.374;2023-06-14T06:06:54;67.53;;;25.92;;
77246;SDS011;66279;42.820;23.374;2023-06-14T06:09:19;58.05;;;24.55;;
77246;SDS011;66279;42.820;23.374;2023-06-14T06:11:45;60.22;;;23.73;;
77246;SDS011;66279;42.820;23.374;2023-06-14T06:14:11;53.47;;;21.60;;
77246;SDS011;66279;42.820;23.374;2023-06-14T06:16:36;58.30;;;21.95;;
77246;SDS011;66279;42.820;23.374;2023-06-14T06:19:02;49.92;;;20.77;;
77246;SDS011;66279;42.820;23.374;2023-06-14T06:21:27;53.38;;;19.67;;
77246;SDS011;66279;42.820;23.374;2023-06-14T06:23:53;50.40;;;20.42;;
77246;SDS011;66279;42.820;23.374;2023-06-14T06:26:21;53.17;;;20.50;;
77246;SDS011;66279;42.820;23.374;2023-06-14T06:28:47;51.30;;;20.33;;
77246;SDS011;66279;42.820;23.374;2023-06-14T06:31:13;43.10;;;18.17;;
77246;SDS011;66279;42.820;23.374;2023-06-14T06:33:39;45.72;;;18.98;;
77246;SDS011;66279;42.820;23.374;2023-06-14T06:36:05;49.20;;;19.13;;
77246;SDS011;66279;42.820;23.374;2023-06-14T06:38:30;48.85;;;18.05;;
77246;SDS011;66279;42.820;23.374;2023-06-14T06:40:56;43.97;;;17.70;;
77246;SDS011;66279;42.820;23.374;2023-06-14T06:43:22;38.30;;;15.95;;
77246;SDS011;66279;42.820;23.374;2023-06-14T06:45:47;45.65;;;18.88;;
77246;SDS011;66279;42.820;23.374;2023-06-14T06:48:13;44.88;;;18.92;;
77246;SDS011;66279;42.820;23.374;2023-06-14T06:50:39;52.60;;;19.67;;
77246;SDS011;66279;42.820;23.374;2023-06-14T06:53:04;57.47;;;21.05;;
77246;SDS011;66279;42.820;23.374;2023-06-14T06:55:31;52.58;;;17.88;;
77246;SDS011;66279;42.820;23.374;2023-06-14T06:57:57;47.13;;;19.35;;
77246;SDS011;66279;42.820;23.374;2023-06-14T07:00:23;47.08;;;18.75;;
77246;SDS011;66279;42.820;23.374;2023-06-14T07:02:48;49.67;;;18.98;;
77246;SDS011;66279;42.820;23.374;2023-06-14T07:57:23;47.90;;;17.80;;
77246;SDS011;66279;42.820;23.374;2023-06-14T07:59:49;35.47;;;15.57;;
77246;SDS011;66279;42.820;23.374;2023-06-14T08:02:15;51.60;;;19.15;;
77246;SDS011;66279;42.820;23.374;2023-06-14T08:04:41;42.33;;;18.60;;
77246;SDS011;66279;42.820;23.374;2023-06-14T08:07:07;38.15;;;18.17;;
77246;SDS011;66279;42.820;23.374;2023-06-14T08:09:33;36.17;;;15.98;;
77246;SDS011;66279;42.820;23.374;2023-06-14T08:11:58;39.40;;;15.60;;
77246;SDS011;66279;42.820;23.374;2023-06-14T08:14:24;45.42;;;16.50;;
77246;SDS011;66279;42.820;23.374;2023-06-14T08:16:49;35.50;;;16.08;;
77246;SDS011;66279;42.820;23.374;2023-06-14T08:19:15;35.53;;;17.25;;
77246;SDS011;66279;42.820;23.374;2023-06-14T08:21:41;33.90;;;16.23;;
77246;SDS011;66279;42.820;23.374;2023-06-14T08:24:08;31.48;;;15.48;;
77246;SDS011;66279;42.820;23.374;2023-06-14T08:26:37;33.78;;;16.58;;
77246;SDS011;66279;42.820;23.374;2023-06-14T08:29:04;26.13;;;15.32;;
77246;SDS011;66279;42.820;23.374;2023-06-14T08:31:32;52.00;;;16.95;;
77246;SDS011;66279;42.820;23.374;2023-06-14T08:33:58;32.30;;;15.55;;
77246;SDS011;66279;42.820;23.374;2023-06-14T08:36:23;32.70;;;14.63;;
77246;SDS011;66279;42.820;23.374;2023-06-14T08:38:49;37.15;;;15.25;;
77246;SDS011;66279;42.820;23.374;2023-06-14T08:41:17;31.55;;;14.75;;
77246;SDS011;66279;42.820;23.374;2023-06-14T08:43:47;30.88;;;14.55;;
77246;SDS011;66279;42.820;23.374;2023-06-14T08:46:12;24.08;;;13.75;;
77246;SDS011;66279;42.820;23.374;2023-06-14T08:48:41;35.30;;;14.63;;
77246;SDS011;66279;42.820;23.374;2023-06-14T08:51:08;28.00;;;13.40;;
77246;SDS011;66279;42.820;23.374;2023-06-14T08:53:35;28.55;;;12.98;;
77246;SDS011;66279;42.820;23.374;2023-06-14T08:56:07;21.20;;;10.73;;
77246;SDS011;66279;42.820;23.374;2023-06-14T08:58:39;26.05;;;10.50;;
77246;SDS011;66279;42.820;23.374;2023-06-14T09:01:10;27.75;;;11.00;;
77246;SDS011;66279;42.820;23.374;2023-06-14T09:03:41;23.98;;;11.63;;
77246;SDS011;66279;42.820;23.374;2023-06-14T09:06:08;25.92;;;12.60;;
77246;SDS011;66279;42.820;23.374;2023-06-14T09:08:45;21.45;;;11.00;;
77246;SDS011;66279;42.820;23.374;2023-06-14T09:11:14;20.77;;;11.55;;
77246;SDS011;66279;42.820;23.374;2023-06-14T09:13:41;21.27;;;12.48;;
77246;SDS011;66279;42.820;23.374;2023-06-14T09:16:08;22.85;;;11.32;;
77246;SDS011;66279;42.820;23.374;2023-06-14T09:18:37;17.98;;;11.05;;
77246;SDS011;66279;42.820;23.374;2023-06-14T09:21:07;23.90;;;11.68;;
77246;SDS011;66279;42.820;23.374;2023-06-14T09:23:36;20.95;;;12.30;;
77246;SDS011;66279;42.820;23.374;2023-06-14T09:26:10;23.40;;;12.88;;
77246;SDS011;66279;42.820;23.374;2023-06-14T09:28:36;45.85;;;13.48;;
77246;SDS011;66279;42.820;23.374;2023-06-14T09:31:02;23.40;;;13.05;;
77246;SDS011;66279;42.820;23.374;2023-06-14T09:33:27;25.02;;;14.30;;
77246;SDS011;66279;42.820;23.374;2023-06-14T09:35:56;25.15;;;14.25;;
77246;SDS011;66279;42.820;23.374;2023-06-14T09:38:22;37.55;;;14.15;;
77246;SDS011;66279;42.820;23.374;2023-06-14T09:40:49;26.17;;;13.75;;
77246;SDS011;66279;42.820;23.374;2023-06-14T09:43:15;24.42;;;13.73;;
77246;SDS011;66279;42.820;23.374;2023-06-14T09:45:41;24.88;;;13.88;;
77246;SDS011;66279;42.820;23.374;2023-06-14T09:48:11;30.00;;;15.05;;
77246;SDS011;66279;42.820;23.374;2023-06-14T09:50:37;28.58;;;13.82;;
77246;SDS011;66279;42.820;23.374;2023-06-14T09:53:07;22.25;;;13.90;;
77246;SDS011;66279;42.820;23.374;2023-06-14T09:55:36;26.80;;;15.52;;
77246;SDS011;66279;42.820;23.374;2023-06-14T09:58:06;24.75;;;15.15;;
77246;SDS011;66279;42.820;23.374;2023-06-14T10:00:32;29.70;;;14.23;;
77246;SDS011;66279;42.820;23.374;2023-06-14T10:03:08;26.20;;;12.63;;
77246;SDS011;66279;42.820;23.374;2023-06-14T10:05:37;27.65;;;14.25;;
77246;SDS011;66279;42.820;23.374;2023-06-14T10:08:10;21.90;;;12.90;;
77246;SDS011;66279;42.820;23.374;2023-06-14T10:10:42;18.55;;;12.20;;
77246;SDS011;66279;42.820;23.374;2023-06-14T10:13:08;27.88;;;16.02;;
77246;SDS011;66279;42.820;23.374;2023-06-14T10:18:28;21.02;;;12.35;;
77246;SDS011;66279;42.820;23.374;2023-06-14T10:23:53;26.23;;;13.05;;
77246;SDS011;66279;42.820;23.374;2023-06-14T10:26:22;22.55;;;12.60;;
77246;SDS011;66279;42.820;23.374;2023-06-14T10:29:07;20.05;;;11.00;;
77246;SDS011;66279;42.820;23.374;2023-06-14T10:31:43;23.08;;;13.00;;
77246;SDS011;66279;42.820;23.374;2023-06-14T10:34:11;19.95;;;12.52;;
77246;SDS011;66279;42.820;23.374;2023-06-14T10:36:37;21.08;;;12.63;;
77246;SDS011;66279;42.820;23.374;2023-06-14T10:39:07;20.13;;;10.38;;
77246;SDS011;66279;42.820;23.374;2023-06-14T10:41:36;17.00;;;10.95;;
77246;SDS011;66279;42.820;23.374;2023-06-14T10:44:10;22.75;;;12.07;;
77246;SDS011;66279;42.820;23.374;2023-06-14T10:46:39;27.02;;;13.07;;
77246;SDS011;66279;42.820;23.374;2023-06-14T10:49:05;19.88;;;12.32;;
77246;SDS011;66279;42.820;23.374;2023-06-14T10:51:53;18.63;;;12.02;;
77246;SDS011;66279;42.820;23.374;2023-06-14T10:54:21;24.23;;;12.32;;
77246;SDS011;66279;42.820;23.374;2023-06-14T10:59:13;22.33;;;14.18;;
77246;SDS011;66279;42.820;23.374;2023-06-14T11:12:44;27.30;;;13.48;;
77246;SDS011;66279;42.820;23.374;2023-06-14T11:15:12;21.60;;;11.38;;
77246;SDS011;66279;42.820;23.374;2023-06-14T11:17:38;22.48;;;12.20;;
77246;SDS011;66279;42.820;23.374;2023-06-14T11:20:08;21.88;;;12.25;;
77246;SDS011;66279;42.820;23.374;2023-06-14T11:22:43;24.67;;;12.77;;
77246;SDS011;66279;42.820;23.374;2023-06-14T11:25:10;20.15;;;11.82;;
77246;SDS011;66279;42.820;23.374;2023-06-14T11:27:38;18.80;;;12.25;;
77246;SDS011;66279;42.820;23.374;2023-06-14T11:30:06;22.10;;;13.15;;
77246;SDS011;66279;42.820;23.374;2023-06-14T11:32:32;24.38;;;15.85;;
77246;SDS011;66279;42.820;23.374;2023-06-14T11:34:58;19.55;;;10.93;;
77246;SDS011;66279;42.820;23.374;2023-06-14T11:37:26;18.90;;;11.90;;
77246;SDS011;66279;42.820;23.374;2023-06-14T11:39:57;18.33;;;11.38;;
77246;SDS011;66279;42.820;23.374;2023-06-14T11:42:24;19.08;;;9.48;;
77246;SDS011;66279;42.820;23.374;2023-06-14T11:44:52;15.85;;;10.15;;
77246;SDS011;66279;42.820;23.374;2023-06-14T11:47:18;22.50;;;11.68;;
77246;SDS011;66279;42.820;23.374;2023-06-14T11:49:44;19.92;;;11.65;;
77246;SDS011;66279;42.820;23.374;2023-06-14T11:52:09;27.52;;;12.27;;
77246;SDS011;66279;42.820;23.374;2023-06-14T11:54:36;19.75;;;12.57;;
77246;SDS011;66279;42.820;23.374;2023-06-14T11:57:02;16.40;;;12.02;;
77246;SDS011;66279;42.820;23.374;2023-06-14T11:59:29;20.85;;;11.10;;
77246;SDS011;66279;42.820;23.374;2023-06-14T12:01:56;20.08;;;12.13;;
77246;SDS011;66279;42.820;23.374;2023-06-14T12:04:26;18.15;;;12.05;;
77246;SDS011;66279;42.820;23.374;2023-06-14T12:06:52;19.50;;;12.07;;
77246;SDS011;66279;42.820;23.374;2023-06-14T12:09:20;16.40;;;10.77;;
77246;SDS011;66279;42.820;23.374;2023-06-14T12:11:54;21.77;;;12.27;;
77246;SDS011;66279;42.820;23.374;2023-06-14T12:14:30;18.52;;;11.27;;
77246;SDS011;66279;42.820;23.374;2023-06-14T12:17:05;22.63;;;10.98;;
77246;SDS011;66279;42.820;23.374;2023-06-14T12:19:31;20.10;;;11.65;;
77246;SDS011;66279;42.820;23.374;2023-06-14T12:21:59;19.25;;;11.43;;
77246;SDS011;66279;42.820;23.374;2023-06-14T12:24:29;19.10;;;11.30;;
77246;SDS011;66279;42.820;23.374;2023-06-14T12:26:57;20.95;;;11.02;;
77246;SDS011;66279;42.820;23.374;2023-06-14T12:29:28;26.92;;;11.35;;
77246;SDS011;66279;42.820;23.374;2023-06-14T12:31:54;17.95;;;10.20;;
77246;SDS011;66279;42.820;23.374;2023-06-14T12:34:22;17.15;;;11.25;;
77246;SDS011;66279;42.820;23.374;2023-06-14T12:36:49;18.95;;;11.40;;
77246;SDS011;66279;42.820;23.374;2023-06-14T12:39:16;17.67;;;11.18;;
77246;SDS011;66279;42.820;23.374;2023-06-14T12:41:41;21.77;;;12.05;;
77246;SDS011;66279;42.820;23.374;2023-06-14T12:44:07;20.38;;;11.95;;
77246;SDS011;66279;42.820;23.374;2023-06-14T12:46:33;18.17;;;11.05;;
77246;SDS011;66279;42.820;23.374;2023-06-14T12:49:00;26.33;;;11.50;;
77246;SDS011;66279;42.820;23.374;2023-06-14T12:51:26;24.70;;;10.35;;
77246;SDS011;66279;42.820;23.374;2023-06-14T12:53:51;13.30;;;8.60;;
77246;SDS011;66279;42.820;23.374;2023-06-14T12:56:17;12.00;;;8.27;;
77246;SDS011;66279;42.820;23.374;2023-06-14T12:58:43;17.77;;;8.40;;
77246;SDS011;66279;42.820;23.374;2023-06-14T13:01:08;14.73;;;8.00;;
77246;SDS011;66279;42.820;23.374;2023-06-14T13:03:34;25.80;;;8.13;;
77246;SDS011;66279;42.820;23.374;2023-06-14T13:06:00;14.98;;;8.60;;
77246;SDS011;66279;42.820;23.374;2023-06-14T13:08:28;19.10;;;8.48;;
77246;SDS011;66279;42.820;23.374;2023-06-14T13:10:53;24.05;;;8.45;;
77246;SDS011;66279;42.820;23.374;2023-06-14T13:13:19;16.10;;;8.82;;
77246;SDS011;66279;42.820;23.374;2023-06-14T13:15:45;14.02;;;7.32;;
77246;SDS011;66279;42.820;23.374;2023-06-14T13:18:15;15.50;;;7.82;;
77246;SDS011;66279;42.820;23.374;2023-06-14T13:20:40;15.52;;;8.18;;
77246;SDS011;66279;42.820;23.374;2023-06-14T13:23:07;15.20;;;8.55;;
77246;SDS011;66279;42.820;23.374;2023-06-14T13:25:33;17.42;;;8.70;;
77246;SDS011;66279;42.820;23.374;2023-06-14T13:27:59;16.58;;;9.13;;
77246;SDS011;66279;42.820;23.374;2023-06-14T13:30:25;12.50;;;8.27;;
77246;SDS011;66279;42.820;23.374;2023-06-14T13:32:50;15.68;;;8.85;;
77246;SDS011;66279;42.820;23.374;2023-06-14T13:35:17;13.93;;;8.48;;
77246;SDS011;66279;42.820;23.374;2023-06-14T13:37:43;18.30;;;8.55;;
77246;SDS011;66279;42.820;23.374;2023-06-14T13:40:09;17.20;;;7.88;;
77246;SDS011;66279;42.820;23.374;2023-06-14T13:42:35;14.27;;;7.80;;
77246;SDS011;66279;42.820;23.374;2023-06-14T13:45:01;19.02;;;8.38;;
77246;SDS011;66279;42.820;23.374;2023-06-14T13:47:28;18.08;;;8.80;;
77246;SDS011;66279;42.820;23.374;2023-06-14T13:49:53;17.10;;;9.07;;
77246;SDS011;66279;42.820;23.374;2023-06-14T13:52:19;11.98;;;7.40;;
77246;SDS011;66279;42.820;23.374;2023-06-14T13:54:44;18.17;;;7.38;;
77246;SDS011;66279;42.820;23.374;2023-06-14T13:57:10;18.00;;;9.05;;
77246;SDS011;66279;42.820;23.374;2023-06-14T13:59:38;14.13;;;7.95;;
77246;SDS011;66279;42.820;23.374;2023-06-14T14:02:04;22.80;;;9.15;;
77246;SDS011;66279;42.820;23.374;2023-06-14T14:04:30;24.75;;;9.18;;
77246;SDS011;66279;42.820;23.374;2023-06-14T14:06:56;27.08;;;10.93;;
77246;SDS011;66279;42.820;23.374;2023-06-14T14:09:22;25.83;;;10.90;;
77246;SDS011;66279;42.820;23.374;2023-06-14T14:11:47;30.58;;;12.32;;
77246;SDS011;66279;42.820;23.374;2023-06-14T14:14:14;41.67;;;9.52;;
77246;SDS011;66279;42.820;23.374;2023-06-14T14:16:39;29.00;;;9.13;;
77246;SDS011;66279;42.820;23.374;2023-06-14T14:19:05;22.50;;;9.00;;
77246;SDS011;66279;42.820;23.374;2023-06-14T14:21:31;32.20;;;11.13;;
77246;SDS011;66279;42.820;23.374;2023-06-14T14:23:57;24.90;;;10.95;;
77246;SDS011;66279;42.820;23.374;2023-06-14T14:26:23;50.60;;;13.15;;
77246;SDS011;66279;42.820;23.374;2023-06-14T14:28:50;28.75;;;13.73;;
77246;SDS011;66279;42.820;23.374;2023-06-14T14:31:16;32.10;;;15.15;;
77246;SDS011;66279;42.820;23.374;2023-06-14T14:33:41;27.55;;;11.57;;
77246;SDS011;66279;42.820;23.374;2023-06-14T14:36:07;27.75;;;11.05;;
77246;SDS011;66279;42.820;23.374;2023-06-14T14:38:33;27.52;;;12.25;;
77246;SDS011;66279;42.820;23.374;2023-06-14T14:40:59;25.33;;;11.10;;
77246;SDS011;66279;42.820;23.374;2023-06-14T14:43:24;30.27;;;14.20;;
77246;SDS011;66279;42.820;23.374;2023-06-14T14:45:50;25.60;;;12.73;;
77246;SDS011;66279;42.820;23.374;2023-06-14T14:48:15;25.77;;;12.35;;
77246;SDS011;66279;42.820;23.374;2023-06-14T14:50:41;31.38;;;13.13;;
77246;SDS011;66279;42.820;23.374;2023-06-14T14:53:06;32.22;;;15.93;;
77246;SDS011;66279;42.820;23.374;2023-06-14T14:55:32;25.85;;;10.93;;
77246;SDS011;66279;42.820;23.374;2023-06-14T14:57:59;27.30;;;12.45;;
77246;SDS011;66279;42.820;23.374;2023-06-14T15:00:25;26.20;;;12.88;;
77246;SDS011;66279;42.820;23.374;2023-06-14T15:02:51;29.00;;;12.05;;
77246;SDS011;66279;42.820;23.374;2023-06-14T15:05:17;23.20;;;11.25;;
77246;SDS011;66279;42.820;23.374;2023-06-14T15:07:42;26.95;;;11.35;;
77246;SDS011;66279;42.820;23.374;2023-06-14T15:10:09;26.85;;;11.77;;
77246;SDS011;66279;42.820;23.374;2023-06-14T15:12:35;32.72;;;14.02;;
77246;SDS011;66279;42.820;23.374;2023-06-14T15:15:01;29.83;;;12.57;;
77246;SDS011;66279;42.820;23.374;2023-06-14T15:17:27;30.67;;;12.90;;
77246;SDS011;66279;42.820;23.374;2023-06-14T15:19:53;21.48;;;10.70;;
77246;SDS011;66279;42.820;23.374;2023-06-14T15:22:19;33.13;;;12.52;;
77246;SDS011;66279;42.820;23.374;2023-06-14T15:24:45;27.83;;;10.88;;
77246;SDS011;66279;42.820;23.374;2023-06-14T15:27:13;22.50;;;9.98;;
77246;SDS011;66279;42.820;23.374;2023-06-14T15:29:40;19.38;;;8.85;;
77246;SDS011;66279;42.820;23.374;2023-06-14T15:32:07;20.85;;;11.85;;
77246;SDS011;66279;42.820;23.374;2023-06-14T15:34:33;25.20;;;11.43;;
77246;SDS011;66279;42.820;23.374;2023-06-14T15:36:58;30.33;;;11.70;;
77246;SDS011;66279;42.820;23.374;2023-06-14T15:39:24;28.48;;;10.65;;
77246;SDS011;66279;42.820;23.374;2023-06-14T15:41:51;30.38;;;11.70;;
77246;SDS011;66279;42.820;23.374;2023-06-14T15:44:17;24.10;;;10.85;;
77246;SDS011;66279;42.820;23.374;2023-06-14T15:46:43;19.17;;;9.45;;
77246;SDS011;66279;42.820;23.374;2023-06-14T15:49:09;27.33;;;10.70;;
77246;SDS011;66279;42.820;23.374;2023-06-14T15:51:38;25.65;;;10.48;;
77246;SDS011;66279;42.820;23.374;2023-06-14T15:54:04;25.85;;;11.55;;
77246;SDS011;66279;42.820;23.374;2023-06-14T15:56:29;28.42;;;11.93;;
77246;SDS011;66279;42.820;23.374;2023-06-14T15:58:55;19.70;;;10.63;;
77246;SDS011;66279;42.820;23.374;2023-06-14T16:01:22;24.60;;;11.38;;
77246;SDS011;66279;42.820;23.374;2023-06-14T16:03:48;25.17;;;11.35;;
77246;SDS011;66279;42.820;23.374;2023-06-14T16:06:13;19.60;;;9.25;;
77246;SDS011;66279;42.820;23.374;2023-06-14T16:08:39;21.40;;;9.13;;
77246;SDS011;66279;42.820;23.374;2023-06-14T16:11:04;19.58;;;9.43;;
77246;SDS011;66279;42.820;23.374;2023-06-14T16:13:30;22.67;;;9.45;;
77246;SDS011;66279;42.820;23.374;2023-06-14T16:15:55;20.40;;;9.18;;
77246;SDS011;66279;42.820;23.374;2023-06-14T16:18:21;20.17;;;9.63;;
77246;SDS011;66279;42.820;23.374;2023-06-14T16:20:47;19.35;;;8.13;;
77246;SDS011;66279;42.820;23.374;2023-06-14T16:23:13;13.55;;;7.78;;
77246;SDS011;66279;42.820;23.374;2023-06-14T16:25:38;12.88;;;7.20;;
77246;SDS011;66279;42.820;23.374;2023-06-14T16:28:04;16.63;;;7.05;;
77246;SDS011;66279;42.820;23.374;2023-06-14T16:30:30;12.07;;;6.80;;
77246;SDS011;66279;42.820;23.374;2023-06-14T16:32:55;14.25;;;7.43;;
77246;SDS011;66279;42.820;23.374;2023-06-14T16:35:22;15.90;;;7.53;;
77246;SDS011;66279;42.820;23.374;2023-06-14T16:37:48;15.98;;;7.10;;
77246;SDS011;66279;42.820;23.374;2023-06-14T16:40:13;13.60;;;7.25;;
77246;SDS011;66279;42.820;23.374;2023-06-14T16:42:39;13.73;;;6.22;;
77246;SDS011;66279;42.820;23.374;2023-06-14T16:45:04;15.13;;;6.75;;
77246;SDS011;66279;42.820;23.374;2023-06-14T16:47:30;11.25;;;5.93;;
77246;SDS011;66279;42.820;23.374;2023-06-14T16:49:56;10.27;;;6.30;;
77246;SDS011;66279;42.820;23.374;2023-06-14T16:52:21;14.05;;;5.68;;
77246;SDS011;66279;42.820;23.374;2023-06-14T16:54:47;11.65;;;6.15;;
77246;SDS011;66279;42.820;23.374;2023-06-14T16:57:12;17.73;;;7.40;;
77246;SDS011;66279;42.820;23.374;2023-06-14T16:59:38;12.38;;;6.70;;
77246;SDS011;66279;42.820;23.374;2023-06-14T17:02:04;11.18;;;6.07;;
77246;SDS011;66279;42.820;23.374;2023-06-14T17:04:30;8.60;;;5.70;;
77246;SDS011;66279;42.820;23.374;2023-06-14T17:06:57;9.27;;;5.07;;
77246;SDS011;66279;42.820;23.374;2023-06-14T17:09:23;9.68;;;5.70;;
77246;SDS011;66279;42.820;23.374;2023-06-14T17:11:48;10.98;;;6.28;;
77246;SDS011;66279;42.820;23.374;2023-06-14T17:14:14;13.40;;;6.20;;
77246;SDS011;66279;42.820;23.374;2023-06-14T17:16:40;9.32;;;6.18;;
77246;SDS011;66279;42.820;23.374;2023-06-14T17:19:06;11.40;;;6.18;;
77246;SDS011;66279;42.820;23.374;2023-06-14T17:21:31;11.52;;;6.35;;
77246;SDS011;66279;42.820;23.374;2023-06-14T17:23:57;9.65;;;6.22;;
77246;SDS011;66279;42.820;23.374;2023-06-14T17:26:23;9.38;;;5.93;;
77246;SDS011;66279;42.820;23.374;2023-06-14T17:28:50;9.80;;;5.82;;
77246;SDS011;66279;42.820;23.374;2023-06-14T17:31:16;10.40;;;5.53;;
77246;SDS011;66279;42.820;23.374;2023-06-14T17:33:42;12.63;;;6.75;;
77246;SDS011;66279;42.820;23.374;2023-06-14T17:36:07;10.30;;;6.55;;
77246;SDS011;66279;42.820;23.374;2023-06-14T17:38:34;11.10;;;5.65;;
77246;SDS011;66279;42.820;23.374;2023-06-14T17:41:01;10.63;;;5.93;;
77246;SDS011;66279;42.820;23.374;2023-06-14T17:43:30;17.05;;;7.15;;
77246;SDS011;66279;42.820;23.374;2023-06-14T17:45:56;11.70;;;7.32;;
77246;SDS011;66279;42.820;23.374;2023-06-14T17:48:21;12.65;;;7.43;;
77246;SDS011;66279;42.820;23.374;2023-06-14T17:50:47;17.20;;;8.07;;
77246;SDS011;66279;42.820;23.374;2023-06-14T17:53:12;12.98;;;6.57;;
77246;SDS011;66279;42.820;23.374;2023-06-14T17:55:38;15.20;;;7.05;;
77246;SDS011;66279;42.820;23.374;2023-06-14T17:58:04;11.90;;;7.18;;
77246;SDS011;66279;42.820;23.374;2023-06-14T18:00:30;12.52;;;6.68;;
77246;SDS011;66279;42.820;23.374;2023-06-14T18:02:55;13.80;;;6.47;;
77246;SDS011;66279;42.820;23.374;2023-06-14T18:05:23;13.05;;;6.70;;
77246;SDS011;66279;42.820;23.374;2023-06-14T18:07:51;13.95;;;7.45;;
77246;SDS011;66279;42.820;23.374;2023-06-14T18:10:16;13.80;;;7.60;;
77246;SDS011;66279;42.820;23.374;2023-06-14T18:12:43;12.57;;;7.20;;
77246;SDS011;66279;42.820;23.374;2023-06-14T18:15:08;17.38;;;9.38;;
77246;SDS011;66279;42.820;23.374;2023-06-14T18:17:35;13.45;;;6.30;;
77246;SDS011;66279;42.820;23.374;2023-06-14T18:20:01;12.98;;;7.20;;
77246;SDS011;66279;42.820;23.374;2023-06-14T18:22:28;11.40;;;6.47;;
77246;SDS011;66279;42.820;23.374;2023-06-14T18:24:54;14.50;;;7.63;;
77246;SDS011;66279;42.820;23.374;2023-06-14T18:27:21;14.68;;;8.75;;
77246;SDS011;66279;42.820;23.374;2023-06-14T18:29:46;16.08;;;7.47;;
77246;SDS011;66279;42.820;23.374;2023-06-14T18:32:12;18.50;;;7.80;;
77246;SDS011;66279;42.820;23.374;2023-06-14T18:34:38;11.23;;;6.90;;
77246;SDS011;66279;42.820;23.374;2023-06-14T18:37:04;14.70;;;7.65;;
77246;SDS011;66279;42.820;23.374;2023-06-14T18:39:31;14.32;;;7.45;;
77246;SDS011;66279;42.820;23.374;2023-06-14T18:41:57;13.50;;;7.45;;
77246;SDS011;66279;42.820;23.374;2023-06-14T18:44:24;14.77;;;8.15;;
77246;SDS011;66279;42.820;23.374;2023-06-14T18:46:50;19.33;;;8.07;;
77246;SDS011;66279;42.820;23.374;2023-06-14T18:49:15;15.48;;;6.85;;
77246;SDS011;66279;42.820;23.374;2023-06-14T18:51:41;13.77;;;6.18;;
77246;SDS011;66279;42.820;23.374;2023-06-14T18:54:07;11.38;;;6.00;;
77246;SDS011;66279;42.820;23.374;2023-06-14T18:56:33;15.90;;;8.90;;
77246;SDS011;66279;42.820;23.374;2023-06-14T18:59:00;16.17;;;8.00;;
77246;SDS011;66279;42.820;23.374;2023-06-14T19:01:28;13.10;;;7.28;;
77246;SDS011;66279;42.820;23.374;2023-06-14T19:03:55;13.88;;;8.05;;
77246;SDS011;66279;42.820;23.374;2023-06-14T19:06:20;13.30;;;7.47;;
77246;SDS011;66279;42.820;23.374;2023-06-14T19:08:47;13.05;;;6.60;;
77246;SDS011;66279;42.820;23.374;2023-06-14T19:11:13;13.75;;;7.63;;
77246;SDS011;66279;42.820;23.374;2023-06-14T19:13:39;13.45;;;7.20;;
77246;SDS011;66279;42.820;23.374;2023-06-14T19:16:05;11.90;;;7.05;;
77246;SDS011;66279;42.820;23.374;2023-06-14T19:18:31;12.55;;;6.50;;
77246;SDS011;66279;42.820;23.374;2023-06-14T19:20:57;13.82;;;7.35;;
77246;SDS011;66279;42.820;23.374;2023-06-14T19:23:22;11.77;;;6.85;;
77246;SDS011;66279;42.820;23.374;2023-06-14T19:25:49;15.10;;;6.93;;
77246;SDS011;66279;42.820;23.374;2023-06-14T19:28:15;13.75;;;6.95;;
77246;SDS011;66279;42.820;23.374;2023-06-14T19:30:41;14.88;;;6.72;;
77246;SDS011;66279;42.820;23.374;2023-06-14T19:33:10;13.05;;;7.00;;
77246;SDS011;66279;42.820;23.374;2023-06-14T19:35:37;18.80;;;7.22;;
77246;SDS011;66279;42.820;23.374;2023-06-14T19:38:03;12.77;;;6.43;;
77246;SDS011;66279;42.820;23.374;2023-06-14T19:40:29;15.45;;;7.10;;
77246;SDS011;66279;42.820;23.374;2023-06-14T19:42:54;14.85;;;7.25;;
77246;SDS011;66279;42.820;23.374;2023-06-14T19:45:20;14.57;;;6.60;;
77246;SDS011;66279;42.820;23.374;2023-06-14T19:47:45;9.70;;;5.88;;
77246;SDS011;66279;42.820;23.374;2023-06-14T19:50:11;15.18;;;6.40;;
77246;SDS011;66279;42.820;23.374;2023-06-14T19:52:37;17.60;;;7.47;;
77246;SDS011;66279;42.820;23.374;2023-06-14T19:55:02;13.02;;;6.80;;
77246;SDS011;66279;42.820;23.374;2023-06-14T19:57:28;12.93;;;7.82;;
77246;SDS011;66279;42.820;23.374;2023-06-14T19:59:54;13.52;;;7.25;;
77246;SDS011;66279;42.820;23.374;2023-06-14T20:02:19;12.77;;;7.05;;
77246;SDS011;66279;42.820;23.374;2023-06-14T20:04:45;12.30;;;6.47;;
77246;SDS011;66279;42.820;23.374;2023-06-14T20:07:11;13.60;;;5.82;;
77246;SDS011;66279;42.820;23.374;2023-06-14T20:09:38;13.07;;;6.32;;
77246;SDS011;66279;42.820;23.374;2023-06-14T20:12:03;15.27;;;6.07;;
77246;SDS011;66279;42.820;23.374;2023-06-14T20:14:30;18.58;;;6.75;;
77246;SDS011;66279;42.820;23.374;2023-06-14T20:16:55;13.85;;;6.75;;
77246;SDS011;66279;42.820;23.374;2023-06-14T20:19:21;10.65;;;6.03;;
77246;SDS011;66279;42.820;23.374;2023-06-14T20:21:47;13.20;;;6.80;;
77246;SDS011;66279;42.820;23.374;2023-06-14T20:24:12;10.00;;;5.78;;
77246;SDS011;66279;42.820;23.374;2023-06-14T20:26:38;13.43;;;6.88;;
77246;SDS011;66279;42.820;23.374;2023-06-14T20:29:03;16.02;;;6.22;;
77246;SDS011;66279;42.820;23.374;2023-06-14T20:31:29;16.15;;;6.72;;